Time;durP1;ratioP1;P1;durP2;ratioP2;P2;SDS_P1;SDS_P2;PMS_P1;PMS_P2;Temp;Humidity;BMP_temperature;BMP_pressure;BME280_temperature;BME280_humidity;BME280_pressure;Samples;Min_cycle;Max_cycle;Signal;HPM_P1;HPM_P2
2023/12/10 00:00:55;;;;;;;62.13;5.65;;;;;;;;;;4896474;29;20087;-88
2023/12/10 00:03:24;;;;;;;51.30;6.78;;;;;;;;;;4882660;29;20577;-91
2023/12/10 00:05:56;;;;;;;56.95;5.63;;;;;;;;;;4887195;29;20175;-93
2023/12/10 00:08:25;;;;;;;46.47;4.65;;;;;;;;;;4895839;29;20649;-92
2023/12/10 00:10:55;;;;;;;45.72;6.18;;;;;;;;;;4898017;29;20047;-91
2023/12/10 00:13:21;;;;;;;49.33;6.85;;;;;;;;;;4899571;29;20051;-91
2023/12/10 00:15:47;;;;;;;55.63;6.13;;;;;;;;;;4908327;29;20379;-91
2023/12/10 00:18:16;;;;;;;55.08;6.40;;;;;;;;;;4889838;29;20076;-91
2023/12/10 00:20:42;;;;;;;60.47;9.40;;;;;;;;;;4916310;29;20111;-91
2023/12/10 00:23:11;;;;;;;44.88;5.47;;;;;;;;;;4897648;29;20516;-94
2023/12/10 00:25:40;;;;;;;60.95;6.82;;;;;;;;;;4885523;29;20122;-90
2023/12/10 00:28:07;;;;;;;45.03;4.68;;;;;;;;;;4881265;29;20060;-91
2023/12/10 00:30:33;;;;;;;50.78;6.10;;;;;;;;;;4882322;29;20302;-92
2023/12/10 00:32:59;;;;;;;43.78;7.53;;;;;;;;;;4879207;29;20059;-90
2023/12/10 00:35:52;;;;;;;44.28;6.32;;;;;;;;;;4888162;29;20044;-93
2023/12/10 00:38:20;;;;;;;51.40;6.75;;;;;;;;;;4895625;29;20052;-90
2023/12/10 00:40:49;;;;;;;49.72;6.07;;;;;;;;;;4880052;29;20389;-93
2023/12/10 00:43:16;;;;;;;43.05;5.00;;;;;;;;;;4909361;29;20139;-90
2023/12/10 00:45:43;;;;;;;56.47;6.35;;;;;;;;;;4881553;29;20794;-90
2023/12/10 00:48:10;;;;;;;44.55;6.55;;;;;;;;;;4885491;29;20057;-89
2023/12/10 00:50:36;;;;;;;43.35;5.43;;;;;;;;;;4886293;29;20143;-89
2023/12/10 00:53:08;;;;;;;49.53;5.95;;;;;;;;;;4889562;29;20075;-89
2023/12/10 00:55:38;;;;;;;43.47;6.57;;;;;;;;;;4904605;29;20045;-93
2023/12/10 00:58:04;;;;;;;39.20;5.22;;;;;;;;;;4915757;29;20047;-90
2023/12/10 01:00:39;;;;;;;45.42;7.45;;;;;;;;;;4912522;29;20043;-90
2023/12/10 01:03:17;;;;;;;49.25;5.32;;;;;;;;;;4870597;29;20049;-94
2023/12/10 01:06:18;;;;;;;40.20;5.00;;;;;;;;;;4856649;29;20060;-91
2023/12/10 01:08:47;;;;;;;43.17;5.30;;;;;;;;;;4848435;29;20057;-91
2023/12/10 01:14:23;;;;;;;40.80;4.38;;;;;;;;;;4847215;29;20050;-94
2023/12/10 01:17:00;;;;;;;43.38;4.95;;;;;;;;;;4860985;29;20049;-91
2023/12/10 01:19:27;;;;;;;38.10;4.35;;;;;;;;;;4862567;29;20196;-93
2023/12/10 01:21:56;;;;;;;36.40;4.75;;;;;;;;;;4854426;29;20053;-94
2023/12/10 01:24:28;;;;;;;38.38;4.28;;;;;;;;;;4887002;29;20048;-89
2023/12/10 01:27:20;;;;;;;38.43;4.60;;;;;;;;;;4872251;29;20060;-92
2023/12/10 01:32:55;;;;;;;46.92;9.43;;;;;;;;;;4904539;29;20055;-90
2023/12/10 01:35:33;;;;;;;31.63;5.30;;;;;;;;;;4887154;29;20801;-91
2023/12/10 01:38:02;;;;;;;30.85;2.75;;;;;;;;;;4904165;29;20487;-93
2023/12/10 01:40:32;;;;;;;34.70;4.88;;;;;;;;;;4899574;29;20051;-92
2023/12/10 01:42:58;;;;;;;37.40;3.85;;;;;;;;;;4906437;29;20048;-92
2023/12/10 01:45:25;;;;;;;29.20;4.00;;;;;;;;;;4896140;29;20104;-93
2023/12/10 01:47:51;;;;;;;39.13;4.85;;;;;;;;;;4914316;29;20052;-92
2023/12/10 01:50:19;;;;;;;50.55;6.43;;;;;;;;;;4903837;29;20052;-89
2023/12/10 01:53:02;;;;;;;44.80;5.93;;;;;;;;;;4888190;29;20048;-94
2023/12/10 01:55:34;;;;;;;51.15;7.10;;;;;;;;;;4895819;29;20048;-89
2023/12/10 01:58:04;;;;;;;36.35;3.53;;;;;;;;;;4891904;29;20052;-90
2023/12/10 02:00:33;;;;;;;36.30;4.25;;;;;;;;;;4892358;29;20052;-89
2023/12/10 02:03:04;;;;;;;61.03;7.20;;;;;;;;;;4920547;29;20107;-88
2023/12/10 02:05:30;;;;;;;46.83;4.82;;;;;;;;;;4904912;29;20059;-89
2023/12/10 02:07:56;;;;;;;53.65;6.47;;;;;;;;;;4899408;29;20088;-91
2023/12/10 02:10:22;;;;;;;40.40;4.65;;;;;;;;;;4889622;29;20120;-94
2023/12/10 02:15:44;;;;;;;;;;;;;;;;;;4905157;29;20059;-92
2023/12/10 02:18:13;;;;;;;44.72;5.50;;;;;;;;;;4886489;29;19919;-93
2023/12/10 02:20:39;;;;;;;34.25;3.17;;;;;;;;;;4886976;29;20410;-92
2023/12/10 02:23:27;;;;;;;41.13;5.60;;;;;;;;;;4893846;29;20052;-93
2023/12/10 02:25:56;;;;;;;44.70;5.07;;;;;;;;;;4899811;29;20055;-92
2023/12/10 02:28:25;;;;;;;38.50;3.50;;;;;;;;;;4895270;29;20048;-90
2023/12/10 02:30:54;;;;;;;39.92;3.88;;;;;;;;;;4903722;29;20055;-88
2023/12/10 02:33:26;;;;;;;36.83;4.82;;;;;;;;;;4898159;29;20078;-86
2023/12/10 02:35:55;;;;;;;39.42;4.32;;;;;;;;;;4901254;29;20052;-90
2023/12/10 02:38:23;;;;;;;35.83;4.22;;;;;;;;;;4885287;29;20063;-93
2023/12/10 02:40:59;;;;;;;29.17;5.47;;;;;;;;;;4903810;29;21351;-90
2023/12/10 02:43:26;;;;;;;29.65;4.28;;;;;;;;;;4889700;29;20052;-87
2023/12/10 02:45:53;;;;;;;43.60;5.30;;;;;;;;;;4899668;29;20081;-91
2023/12/10 02:48:22;;;;;;;40.88;5.85;;;;;;;;;;4888581;29;20048;-88
2023/12/10 02:51:11;;;;;;;30.80;4.53;;;;;;;;;;4897873;29;20116;-88
2023/12/10 02:53:37;;;;;;;37.58;5.80;;;;;;;;;;4893401;29;20040;-87
2023/12/10 02:56:06;;;;;;;48.30;6.57;;;;;;;;;;4894519;29;20044;-95
2023/12/10 02:58:33;;;;;;;35.70;4.47;;;;;;;;;;4907002;29;20055;-90
2023/12/10 03:00:59;;;;;;;38.63;6.03;;;;;;;;;;4895377;29;20402;-92
2023/12/10 03:03:27;;;;;;;31.77;5.53;;;;;;;;;;4894623;29;20523;-90
2023/12/10 03:05:59;;;;;;;35.58;5.70;;;;;;;;;;4901722;29;20043;-92
2023/12/10 03:08:25;;;;;;;44.25;5.57;;;;;;;;;;4893212;29;20056;-92
2023/12/10 03:10:57;;;;;;;43.65;4.72;;;;;;;;;;4892946;29;20055;-90
2023/12/10 03:13:27;;;;;;;36.92;4.35;;;;;;;;;;4906443;29;20047;-94
2023/12/10 03:16:07;;;;;;;48.38;5.57;;;;;;;;;;4901113;29;20071;-91
2023/12/10 03:18:34;;;;;;;34.45;4.45;;;;;;;;;;4884055;29;20140;-88
2023/12/10 03:21:06;;;;;;;47.00;8.02;;;;;;;;;;4888464;29;20392;-89
2023/12/10 03:23:55;;;;;;;36.13;5.30;;;;;;;;;;4897652;29;20079;-89
2023/12/10 03:26:26;;;;;;;34.40;5.38;;;;;;;;;;4904364;29;20704;-94
2023/12/10 03:28:56;;;;;;;39.08;5.15;;;;;;;;;;4899524;29;20063;-92
2023/12/10 03:31:29;;;;;;;38.28;4.85;;;;;;;;;;4892992;29;20087;-89
2023/12/10 03:33:55;;;;;;;43.13;6.47;;;;;;;;;;4885657;29;20056;-91
2023/12/10 03:36:30;;;;;;;34.72;4.13;;;;;;;;;;4897279;29;20147;-94
2023/12/10 03:38:56;;;;;;;52.67;5.57;;;;;;;;;;4891252;29;20131;-91
2023/12/10 03:41:28;;;;;;;40.80;5.07;;;;;;;;;;4895812;29;20453;-89
2023/12/10 03:43:54;;;;;;;40.28;5.72;;;;;;;;;;4893469;29;20058;-89
2023/12/10 03:46:20;;;;;;;33.85;4.72;;;;;;;;;;4891370;29;20055;-87
2023/12/10 03:48:46;;;;;;;45.92;4.10;;;;;;;;;;4897066;29;20063;-88
2023/12/10 03:51:15;;;;;;;39.10;5.50;;;;;;;;;;4894117;29;20111;-92
2023/12/10 03:53:46;;;;;;;30.55;6.88;;;;;;;;;;4895298;29;20097;-92
2023/12/10 03:56:13;;;;;;;37.03;3.92;;;;;;;;;;4907008;29;20079;-91
2023/12/10 03:58:39;;;;;;;44.75;8.05;;;;;;;;;;4885391;29;20596;-89
2023/12/10 04:01:05;;;;;;;43.47;4.07;;;;;;;;;;4888502;29;20052;-92
2023/12/10 04:03:44;;;;;;;35.10;4.05;;;;;;;;;;4930823;29;20052;-89
2023/12/10 04:06:10;;;;;;;32.05;5.43;;;;;;;;;;4895337;29;20178;-90
2023/12/10 04:08:39;;;;;;;29.23;3.67;;;;;;;;;;4900593;29;20147;-88
2023/12/10 04:11:05;;;;;;;25.77;3.17;;;;;;;;;;4896054;29;20048;-90
2023/12/10 04:13:37;;;;;;;20.70;2.30;;;;;;;;;;4884302;29;20048;-91
2023/12/10 04:16:08;;;;;;;25.20;2.72;;;;;;;;;;4889982;29;20051;-91
2023/12/10 04:18:36;;;;;;;19.13;2.85;;;;;;;;;;4894629;29;20087;-91
2023/12/10 04:21:07;;;;;;;21.10;1.90;;;;;;;;;;4888915;29;20052;-92
2023/12/10 04:23:33;;;;;;;13.13;1.50;;;;;;;;;;4918692;29;20059;-88
2023/12/10 04:26:02;;;;;;;19.67;2.03;;;;;;;;;;4894868;29;20047;-89
2023/12/10 04:28:40;;;;;;;11.95;1.67;;;;;;;;;;4892328;29;20094;-89
2023/12/10 04:31:08;;;;;;;14.07;1.67;;;;;;;;;;4900075;29;20355;-86
2023/12/10 04:33:34;;;;;;;15.30;1.45;;;;;;;;;;4892077;29;20387;-89
2023/12/10 04:36:08;;;;;;;16.60;3.15;;;;;;;;;;4889175;29;20064;-91
2023/12/10 04:38:35;;;;;;;17.92;2.13;;;;;;;;;;4889078;29;20129;-90
2023/12/10 04:41:04;;;;;;;12.73;2.33;;;;;;;;;;4891063;29;20778;-90
2023/12/10 04:43:30;;;;;;;15.40;2.53;;;;;;;;;;4897740;29;20126;-89
2023/12/10 04:46:02;;;;;;;14.95;1.73;;;;;;;;;;4912055;29;20401;-89
2023/12/10 04:48:28;;;;;;;18.80;1.90;;;;;;;;;;4886228;29;20055;-88
2023/12/10 04:50:54;;;;;;;20.98;2.13;;;;;;;;;;4879250;29;20052;-89
2023/12/10 04:53:20;;;;;;;12.80;1.42;;;;;;;;;;4881142;29;20048;-91
2023/12/10 04:55:57;;;;;;;11.00;2.10;;;;;;;;;;4889233;29;20056;-91
2023/12/10 04:58:26;;;;;;;22.75;3.28;;;;;;;;;;4888561;29;20060;-91
2023/12/10 05:00:52;;;;;;;12.70;1.80;;;;;;;;;;4895583;29;20493;-91
2023/12/10 05:03:21;;;;;;;15.70;1.50;;;;;;;;;;4892973;29;20048;-89
2023/12/10 05:05:47;;;;;;;15.68;3.53;;;;;;;;;;4913555;29;20059;-90
2023/12/10 05:08:14;;;;;;;18.55;2.13;;;;;;;;;;4890254;29;20056;-87
2023/12/10 05:10:40;;;;;;;14.13;1.65;;;;;;;;;;4900650;29;20051;-91
2023/12/10 05:13:10;;;;;;;15.88;2.20;;;;;;;;;;4911661;29;20111;-90
2023/12/10 05:15:36;;;;;;;13.77;1.48;;;;;;;;;;4901187;29;20052;-93
2023/12/10 05:18:08;;;;;;;12.05;1.70;;;;;;;;;;4905998;29;20489;-89
2023/12/10 05:20:34;;;;;;;12.02;1.42;;;;;;;;;;4894349;29;20620;-91
2023/12/10 05:23:01;;;;;;;15.73;2.28;;;;;;;;;;4909665;29;20115;-88
2023/12/10 05:25:33;;;;;;;12.55;1.80;;;;;;;;;;4910301;29;20513;-89
2023/12/10 05:27:59;;;;;;;14.73;1.80;;;;;;;;;;4897366;29;20052;-89
2023/12/10 05:30:25;;;;;;;16.73;1.35;;;;;;;;;;4912148;29;20035;-90
2023/12/10 05:32:51;;;;;;;10.70;1.08;;;;;;;;;;4901617;29;20048;-91
2023/12/10 05:35:18;;;;;;;15.32;1.38;;;;;;;;;;4907323;29;20181;-91
2023/12/10 05:37:44;;;;;;;15.38;2.17;;;;;;;;;;4894837;29;20058;-92
2023/12/10 05:40:10;;;;;;;12.65;2.35;;;;;;;;;;4899175;29;20088;-88
2023/12/10 05:42:36;;;;;;;13.00;1.95;;;;;;;;;;4885682;29;20044;-91
2023/12/10 05:45:08;;;;;;;9.63;0.80;;;;;;;;;;4895321;29;20592;-90
2023/12/10 05:47:35;;;;;;;7.87;0.87;;;;;;;;;;4898577;29;20138;-90
2023/12/10 05:50:01;;;;;;;10.52;0.60;;;;;;;;;;4899364;29;20059;-90
2023/12/10 05:52:27;;;;;;;8.98;1.50;;;;;;;;;;4896098;29;20566;-89
2023/12/10 05:55:05;;;;;;;15.70;1.70;;;;;;;;;;4893401;29;20048;-88
2023/12/10 05:57:34;;;;;;;16.42;1.13;;;;;;;;;;4897695;29;20107;-91
2023/12/10 06:00:03;;;;;;;9.02;0.77;;;;;;;;;;4887001;29;20140;-91
2023/12/10 06:02:32;;;;;;;7.97;1.20;;;;;;;;;;4899660;29;20052;-91
2023/12/10 06:05:00;;;;;;;10.52;1.10;;;;;;;;;;4893605;29;20058;-92
2023/12/10 06:07:26;;;;;;;15.82;0.80;;;;;;;;;;4891004;29;20075;-89
2023/12/10 06:09:52;;;;;;;7.82;0.70;;;;;;;;;;4894206;29;20059;-90
2023/12/10 06:12:18;;;;;;;16.80;1.48;;;;;;;;;;4888320;29;20079;-89
2023/12/10 06:14:45;;;;;;;17.17;0.95;;;;;;;;;;4887770;29;20052;-91
2023/12/10 06:17:11;;;;;;;8.48;0.80;;;;;;;;;;4889381;29;20059;-90
2023/12/10 06:19:40;;;;;;;11.63;2.05;;;;;;;;;;4881436;29;20067;-93
2023/12/10 06:22:09;;;;;;;15.10;1.17;;;;;;;;;;4888589;29;20055;-91
2023/12/10 06:24:35;;;;;;;7.63;1.52;;;;;;;;;;4910054;29;20135;-90
2023/12/10 06:27:05;;;;;;;9.07;0.88;;;;;;;;;;4893914;29;20052;-92
2023/12/10 06:29:32;;;;;;;7.55;0.63;;;;;;;;;;4889525;29;20454;-92
2023/12/10 06:32:00;;;;;;;9.82;0.80;;;;;;;;;;4890010;29;20058;-92
2023/12/10 06:34:26;;;;;;;14.52;1.85;;;;;;;;;;4896477;29;20059;-90
2023/12/10 06:36:54;;;;;;;13.52;0.90;;;;;;;;;;4907697;29;20526;-91
2023/12/10 06:39:21;;;;;;;7.97;0.85;;;;;;;;;;4891826;29;20566;-91
2023/12/10 06:41:48;;;;;;;8.55;0.65;;;;;;;;;;4893067;29;20152;-90
2023/12/10 06:44:21;;;;;;;13.82;0.73;;;;;;;;;;4887614;29;20036;-91
2023/12/10 06:47:02;;;;;;;11.13;0.80;;;;;;;;;;4902293;29;20114;-91
2023/12/10 06:49:28;;;;;;;10.63;0.50;;;;;;;;;;4897263;29;20896;-90
2023/12/10 06:51:54;;;;;;;9.25;1.17;;;;;;;;;;4888730;29;20074;-90
2023/12/10 06:54:23;;;;;;;12.25;1.15;;;;;;;;;;4895917;29;20600;-90
2023/12/10 06:56:52;;;;;;;14.82;2.05;;;;;;;;;;4910102;29;20058;-91
2023/12/10 06:59:18;;;;;;;12.13;0.95;;;;;;;;;;4888272;29;20048;-89
2023/12/10 07:01:48;;;;;;;5.82;0.30;;;;;;;;;;4910696;29;20052;-88
2023/12/10 07:04:17;;;;;;;7.28;0.77;;;;;;;;;;4888036;29;20048;-91
2023/12/10 07:06:43;;;;;;;5.30;0.30;;;;;;;;;;4887424;29;20047;-89
2023/12/10 07:09:09;;;;;;;0.82;0.00;;;;;;;;;;4887873;29;20044;-90
2023/12/10 07:11:36;;;;;;;5.15;0.57;;;;;;;;;;4914024;29;20113;-87
2023/12/10 07:14:02;;;;;;;3.15;0.38;;;;;;;;;;4900359;29;20845;-92
2023/12/10 07:16:29;;;;;;;5.60;0.20;;;;;;;;;;4893499;29;20128;-91
2023/12/10 07:18:55;;;;;;;5.57;0.20;;;;;;;;;;4895484;29;20055;-91
2023/12/10 07:21:26;;;;;;;6.72;0.40;;;;;;;;;;4890928;29;20111;-91
2023/12/10 07:23:52;;;;;;;8.45;0.82;;;;;;;;;;4890038;29;20076;-90
2023/12/10 07:26:22;;;;;;;10.05;0.45;;;;;;;;;;4904976;29;20702;-95
2023/12/10 07:28:49;;;;;;;7.85;0.65;;;;;;;;;;4889766;29;20056;-93
2023/12/10 07:31:18;;;;;;;11.95;1.02;;;;;;;;;;4918315;29;20044;-92
2023/12/10 07:33:45;;;;;;;14.73;0.93;;;;;;;;;;4893071;29;20119;-93
2023/12/10 07:36:14;;;;;;;5.25;0.32;;;;;;;;;;4914019;29;20055;-92
2023/12/10 07:38:40;;;;;;;14.50;1.02;;;;;;;;;;4920291;29;20039;-92
2023/12/10 07:41:16;;;;;;;14.20;0.88;;;;;;;;;;4901978;29;20301;-90
2023/12/10 07:43:46;;;;;;;17.48;1.17;;;;;;;;;;4899138;29;20048;-90
2023/12/10 07:46:15;;;;;;;14.77;1.23;;;;;;;;;;4885431;29;20094;-92
2023/12/10 07:48:41;;;;;;;14.20;1.75;;;;;;;;;;4900667;29;20079;-89
2023/12/10 07:51:08;;;;;;;21.15;2.63;;;;;;;;;;4889620;29;20129;-92
2023/12/10 07:53:34;;;;;;;7.53;0.82;;;;;;;;;;4889634;29;20055;-92
2023/12/10 07:56:03;;;;;;;18.23;2.17;;;;;;;;;;4885909;29;20080;-93
2023/12/10 07:58:29;;;;;;;23.23;1.67;;;;;;;;;;4909784;29;20059;-91
2023/12/10 08:00:55;;;;;;;20.63;1.25;;;;;;;;;;4896977;29;20132;-90
2023/12/10 08:03:35;;;;;;;20.65;1.58;;;;;;;;;;4890752;29;20055;-92
2023/12/10 08:06:01;;;;;;;14.48;1.35;;;;;;;;;;4901665;29;20498;-91
2023/12/10 08:08:28;;;;;;;18.70;3.28;;;;;;;;;;4893224;29;20121;-89
2023/12/10 08:10:54;;;;;;;13.45;1.38;;;;;;;;;;4899744;29;20561;-92
2023/12/10 08:13:20;;;;;;;18.70;2.72;;;;;;;;;;4884151;29;20103;-89
2023/12/10 08:15:50;;;;;;;7.45;0.60;;;;;;;;;;4892382;29;20059;-92
2023/12/10 08:18:16;;;;;;;10.40;1.10;;;;;;;;;;4893743;29;20059;-92
2023/12/10 08:20:51;;;;;;;13.60;1.13;;;;;;;;;;4915132;29;20051;-90
2023/12/10 08:23:18;;;;;;;18.38;1.48;;;;;;;;;;4894598;29;20063;-89
2023/12/10 08:25:44;;;;;;;14.40;2.42;;;;;;;;;;4908365;29;20142;-92
2023/12/10 08:28:17;;;;;;;19.83;1.92;;;;;;;;;;4890394;29;20064;-93
2023/12/10 08:30:44;;;;;;;31.00;3.33;;;;;;;;;;4897944;29;20188;-88
2023/12/10 08:33:10;;;;;;;16.08;2.05;;;;;;;;;;4902065;29;20070;-93
2023/12/10 08:35:36;;;;;;;13.23;1.10;;;;;;;;;;4895043;29;20044;-92
2023/12/10 08:38:02;;;;;;;20.42;2.13;;;;;;;;;;4901238;29;20519;-92
2023/12/10 08:40:31;;;;;;;20.17;3.17;;;;;;;;;;4895717;29;20048;-91
2023/12/10 08:42:59;;;;;;;21.27;1.95;;;;;;;;;;4897892;29;20052;-93
2023/12/10 08:45:28;;;;;;;27.25;1.73;;;;;;;;;;4887737;29;20107;-92
2023/12/10 08:47:54;;;;;;;25.25;2.80;;;;;;;;;;4895361;29;20055;-88
2023/12/10 08:50:23;;;;;;;24.60;3.80;;;;;;;;;;4897048;29;20048;-89
2023/12/10 08:52:49;;;;;;;20.25;1.67;;;;;;;;;;4905154;29;20054;-89
2023/12/10 08:55:20;;;;;;;25.60;4.10;;;;;;;;;;4903530;29;20052;-91
2023/12/10 08:57:49;;;;;;;15.93;2.10;;;;;;;;;;4920959;29;20055;-93
2023/12/10 09:00:18;;;;;;;35.58;3.42;;;;;;;;;;4897218;29;20051;-92
2023/12/10 09:02:44;;;;;;;20.05;1.80;;;;;;;;;;4911476;29;20048;-91
2023/12/10 09:05:13;;;;;;;25.05;2.25;;;;;;;;;;4910220;29;20055;-89
2023/12/10 09:07:39;;;;;;;19.00;2.00;;;;;;;;;;4902813;29;20116;-90
2023/12/10 09:10:06;;;;;;;31.80;3.10;;;;;;;;;;4900315;29;20059;-91
2023/12/10 09:12:34;;;;;;;31.70;3.15;;;;;;;;;;4888529;29;20052;-92
2023/12/10 09:15:00;;;;;;;21.92;2.90;;;;;;;;;;4912639;29;20051;-92
2023/12/10 09:17:28;;;;;;;27.75;3.88;;;;;;;;;;4892025;29;20055;-90
2023/12/10 09:19:55;;;;;;;23.17;2.35;;;;;;;;;;4891450;29;20113;-94
2023/12/10 09:22:23;;;;;;;25.23;3.50;;;;;;;;;;4891398;29;20502;-91
2023/12/10 09:24:51;;;;;;;24.15;1.98;;;;;;;;;;4897731;29;20063;-91
2023/12/10 09:27:17;;;;;;;31.77;2.15;;;;;;;;;;4908300;29;20056;-89
2023/12/10 09:29:49;;;;;;;30.08;3.92;;;;;;;;;;4885423;29;20048;-94
2023/12/10 09:32:20;;;;;;;22.13;2.30;;;;;;;;;;4920370;29;20047;-89
2023/12/10 09:34:52;;;;;;;20.53;1.77;;;;;;;;;;4897912;29;20055;-93
2023/12/10 09:37:18;;;;;;;19.70;2.08;;;;;;;;;;4898880;29;20506;-90
2023/12/10 09:39:46;;;;;;;17.75;1.30;;;;;;;;;;4900411;29;20115;-89
2023/12/10 09:42:21;;;;;;;25.10;1.98;;;;;;;;;;4909842;29;20062;-91
2023/12/10 09:44:49;;;;;;;24.90;2.67;;;;;;;;;;4910780;29;20066;-89
2023/12/10 09:47:20;;;;;;;18.95;1.85;;;;;;;;;;4930661;29;20059;-90
2023/12/10 09:49:54;;;;;;;20.58;2.50;;;;;;;;;;4894067;29;20087;-92
2023/12/10 09:52:24;;;;;;;22.25;2.42;;;;;;;;;;4895809;29;20499;-89
2023/12/10 09:54:53;;;;;;;24.90;2.78;;;;;;;;;;4890121;29;20048;-92
2023/12/10 09:57:27;;;;;;;26.80;3.20;;;;;;;;;;4907053;29;20059;-90
2023/12/10 10:00:06;;;;;;;28.48;3.00;;;;;;;;;;4900053;29;20510;-90
2023/12/10 10:02:34;;;;;;;22.92;2.55;;;;;;;;;;4892609;29;20090;-89
2023/12/10 10:05:16;;;;;;;30.48;2.38;;;;;;;;;;4894534;29;20145;-91
2023/12/10 10:07:51;;;;;;;18.65;2.92;;;;;;;;;;4888637;29;20080;-90
2023/12/10 10:10:30;;;;;;;;;;;;;;;;;;;;;
2023/12/10 10:13:13;;;;;;;25.40;2.35;;;;;;;;;;4928147;29;20059;-91
2023/12/10 10:15:39;;;;;;;30.58;2.95;;;;;;;;;;4903913;29;20059;-89
2023/12/10 10:18:16;;;;;;;31.88;3.20;;;;;;;;;;4899673;29;20088;-90
2023/12/10 10:20:47;;;;;;;38.25;3.67;;;;;;;;;;4886655;29;20055;-91
2023/12/10 10:23:21;;;;;;;42.50;5.22;;;;;;;;;;4897432;29;20048;-90
2023/12/10 10:25:53;;;;;;;36.75;3.80;;;;;;;;;;4894221;29;20055;-93
2023/12/10 10:28:19;;;;;;;46.83;6.18;;;;;;;;;;4896069;29;20051;-89
2023/12/10 10:30:45;;;;;;;41.80;5.25;;;;;;;;;;4891731;29;20058;-93
2023/12/10 10:33:12;;;;;;;53.47;6.22;;;;;;;;;;4899301;29;20048;-90
2023/12/10 10:35:42;;;;;;;45.63;5.07;;;;;;;;;;4896998;29;20058;-93
2023/12/10 10:38:08;;;;;;;43.13;5.00;;;;;;;;;;4893691;29;20052;-91
2023/12/10 10:40:37;;;;;;;55.90;7.45;;;;;;;;;;4910188;29;20147;-92
2023/12/10 10:43:05;;;;;;;39.63;4.20;;;;;;;;;;4891297;29;20047;-95
2023/12/10 10:45:38;;;;;;;52.75;6.22;;;;;;;;;;4901736;29;20062;-93
2023/12/10 10:48:04;;;;;;;;;;;;;;;;;;4917840;29;20052;-93
2023/12/10 10:50:36;;;;;;;48.15;6.22;;;;;;;;;;4896371;29;19927;-93
2023/12/10 10:53:10;;;;;;;46.80;6.32;;;;;;;;;;4909217;29;20502;-91
2023/12/10 10:55:36;;;;;;;81.80;8.98;;;;;;;;;;4896375;29;20537;-92
2023/12/10 10:58:22;;;;;;;68.43;8.13;;;;;;;;;;4908508;29;20107;-93
2023/12/10 11:00:58;;;;;;;48.72;5.22;;;;;;;;;;4901388;29;20048;-91
2023/12/10 11:03:26;;;;;;;55.58;5.07;;;;;;;;;;4898395;29;20043;-95
2023/12/10 11:05:55;;;;;;;65.15;8.63;;;;;;;;;;4888198;29;20573;-90
2023/12/10 11:08:21;;;;;;;50.45;6.13;;;;;;;;;;4899073;29;20056;-93
2023/12/10 11:11:00;;;;;;;44.47;6.82;;;;;;;;;;4901292;29;20103;-89
2023/12/10 11:13:56;;;;;;;46.75;5.72;;;;;;;;;;4872289;29;20045;-89
2023/12/10 11:16:32;;;;;;;53.35;5.95;;;;;;;;;;4871806;29;20044;-91
2023/12/10 11:18:58;;;;;;;43.28;7.80;;;;;;;;;;4843534;29;20049;-89
2023/12/10 11:21:25;;;;;;;51.25;6.78;;;;;;;;;;4871894;29;20837;-90
2023/12/10 11:23:52;;;;;;;57.95;7.45;;;;;;;;;;4887177;29;20064;-91
2023/12/10 11:26:21;;;;;;;44.20;6.35;;;;;;;;;;4864081;29;20135;-93
2023/12/10 11:29:02;;;;;;;52.28;6.50;;;;;;;;;;4871116;29;20048;-92
2023/12/10 11:31:36;;;;;;;40.67;6.18;;;;;;;;;;4887835;29;20522;-91
2023/12/10 11:34:06;;;;;;;48.25;6.03;;;;;;;;;;4874240;29;20520;-95
2023/12/10 11:36:32;;;;;;;44.95;5.60;;;;;;;;;;4883460;29;20132;-92
2023/12/10 11:39:01;;;;;;;55.30;6.85;;;;;;;;;;4882661;29;20127;-94
2023/12/10 11:41:38;;;;;;;37.83;4.82;;;;;;;;;;4873618;29;20615;-94
2023/12/10 11:44:07;;;;;;;51.15;5.57;;;;;;;;;;4890608;29;20056;-89
2023/12/10 11:47:05;;;;;;;42.15;4.75;;;7.80;99.90;;;;;;4906329;29;20454;-92
2023/12/10 11:49:43;;;;;;;56.92;6.10;;;;;;;;;;4921303;29;20066;-92
2023/12/10 11:52:12;;;;;;;;;;;7.80;99.90;;;;;;4911166;29;20107;-90
2023/12/10 11:54:47;;;;;;;34.30;3.50;;;;;;;;;;4897312;29;19919;-90
2023/12/10 11:57:13;;;;;;;42.45;5.57;;;;;;;;;;4909562;29;20091;-91
2023/12/10 11:59:39;;;;;;;45.70;6.72;;;;;;;;;;4893500;29;20091;-89
2023/12/10 12:02:06;;;;;;;47.47;7.07;;;;;;;;;;4891180;29;20040;-94
2023/12/10 12:04:44;;;;;;;42.15;4.47;;;;;;;;;;4899172;29;20047;-91
2023/12/10 12:07:26;;;;;;;40.30;3.95;;;;;;;;;;4901458;29;20056;-88
2023/12/10 12:09:53;;;;;;;38.75;3.72;;;;;;;;;;4902266;29;20047;-90
2023/12/10 12:12:27;;;;;;;49.80;7.97;;;;;;;;;;4900198;29;20091;-91
2023/12/10 12:14:53;;;;;;;47.30;5.18;;;;;;;;;;4887199;29;20048;-92
2023/12/10 12:17:22;;;;;;;45.83;4.60;;;;;;;;;;4901351;29;20051;-92
2023/12/10 12:20:22;;;;;;;52.65;7.03;;;;;;;;;;4912943;29;20103;-88
2023/12/10 12:23:01;;;;;;;43.42;4.63;;;;;;;;;;4923837;29;20043;-89
2023/12/10 12:25:41;;;;;;;34.58;4.88;;;;;;;;;;4894947;29;20507;-92
2023/12/10 12:28:22;;;;;;;43.22;5.30;;;;;;;;;;4886536;29;20052;-90
2023/12/10 12:30:57;;;;;;;42.25;4.68;;;;;;;;;;4891565;29;20044;-92
2023/12/10 12:33:33;;;;;;;34.80;4.63;;;;;;;;;;4891034;29;20044;-90
2023/12/10 12:36:15;;;;;;;48.17;6.55;;;;;;;;;;4910389;29;20540;-91
2023/12/10 12:38:59;;;;;;;44.13;5.60;;;;;;;;;;4898651;29;20044;-92
2023/12/10 12:41:38;;;;;;;38.75;4.53;;;;;;;;;;4898724;29;20050;-90
2023/12/10 12:44:14;;;;;;;45.15;7.70;;;;;;;;;;4896317;29;20079;-91
2023/12/10 12:46:51;;;;;;;45.17;4.75;;;;;;;;;;4905688;29;20078;-93
2023/12/10 12:49:26;;;;;;;40.70;5.00;;;;;;;;;;4899271;29;20094;-95
2023/12/10 12:51:59;;;;;;;37.20;4.53;;;;;;;;;;4897891;29;20040;-92
2023/12/10 12:54:34;;;;;;;31.40;7.22;;;;;;;;;;4907946;29;20060;-90
2023/12/10 12:57:09;;;;;;;42.67;5.20;;;;;;;;;;4898083;29;20418;-95
2023/12/10 12:59:38;;;;;;;33.97;5.10;;;;;;;;;;4890569;29;20044;-94
2023/12/10 13:02:06;;;;;;;38.13;5.72;;;;;;;;;;4887982;29;20044;-92
2023/12/10 13:04:35;;;;;;;44.60;7.00;;;;;;;;;;4891345;29;20047;-92
2023/12/10 13:07:05;;;;;;;35.00;4.63;;;;;;;;;;4894595;29;20052;-94
2023/12/10 13:09:36;;;;;;;;;;;;;;;;;;4894370;29;20051;-92
2023/12/10 13:12:09;;;;;;;37.30;4.50;;;;;;;;;;4900512;29;19919;-95
2023/12/10 13:14:47;;;;;;;34.72;4.55;;;;;;;;;;4871909;29;20048;-93
2023/12/10 13:17:22;;;;;;;47.67;5.82;;;;;;;;;;4857878;29;20434;-93
2023/12/10 13:22:49;;;;;;;28.80;5.35;;;;;;;;;;4867308;29;20053;-90
2023/12/10 13:25:18;;;;;;;34.58;4.25;;;;;;;;;;4845757;29;20060;-93
2023/12/10 13:28:05;;;;;;;36.63;3.28;;;;;;;;;;4845684;29;20080;-93
2023/12/10 13:30:31;;;;;;;32.80;4.80;;;;;;;;;;4860763;29;20523;-93
2023/12/10 13:33:04;;;;;;;;;;;;;;;;;;4853382;29;20429;-92
2023/12/10 13:35:32;;;;;;;37.05;5.03;;;;;;;;;;4866004;29;19939;-95
2023/12/10 13:38:01;;;;;;;27.73;3.03;;;;;;;;;;4881166;29;20096;-91
2023/12/10 13:40:27;;;;;;;37.28;3.47;;;;;;;;;;4856871;29;20135;-89
2023/12/10 13:42:53;;;;;;;36.63;4.15;;;;;;;;;;4851336;29;20068;-94
2023/12/10 13:45:28;;;;;;;23.33;3.47;;;;;;;;;;4869153;29;20052;-94
2023/12/10 13:48:00;;;;;;;35.45;6.38;;;;;;;;;;4899940;29;20558;-94
2023/12/10 13:50:31;;;;;;;36.92;3.30;;;;;;;;;;4909811;29;20075;-95
2023/12/10 13:53:21;;;;;;;40.05;6.05;;;;;;;;;;4907442;29;20043;-96
2023/12/10 13:55:48;;;;;;;32.80;3.85;;;;;;;;;;4915657;29;20083;-89
2023/12/10 13:58:20;;;;;;;29.50;3.63;;;;;;;;;;4901083;29;20056;-94
2023/12/10 14:00:52;;;;;;;40.03;4.65;;;;;;;;;;4894996;29;20106;-93
2023/12/10 14:03:23;;;;;;;32.30;4.28;;;;;;;;;;4905290;29;20886;-93
2023/12/10 14:06:04;;;;;;;37.13;5.95;;;;;;;;;;4913570;29;20065;-91
2023/12/10 14:08:31;;;;;;;26.92;3.70;;;;;;;;;;4913027;29;20493;-92
2023/12/10 14:11:00;;;;;;;23.73;3.53;;;;;;;;;;4895136;29;20044;-94
2023/12/10 14:13:29;;;;;;;34.50;6.43;;;;;;;;;;4888356;29;20088;-93
2023/12/10 14:16:09;;;;;;;37.33;4.72;;;;;;;;;;4900635;29;20095;-91
2023/12/10 14:18:39;;;;;;;25.95;2.72;;;;;;;;;;4907755;29;20047;-90
2023/12/10 14:21:11;;;;;;;39.70;4.22;;;;;;;;;;4895618;29;20059;-95
2023/12/10 14:24:13;;;;;;;31.45;4.97;;;;;;;;;;4882043;29;20434;-96
2023/12/10 14:26:39;;;;;;;36.42;4.75;;;;;;;;;;4887803;29;20059;-89
2023/12/10 14:29:05;;;;;;;33.22;3.63;;;;;;;;;;4897263;29;20052;-92
2023/12/10 14:31:32;;;;;;;30.90;4.53;;;;;;;;;;4892383;29;20075;-92
2023/12/10 14:34:10;;;;;;;33.22;4.65;;;;;;;;;;4890627;29;20199;-91
2023/12/10 14:36:57;;;;;;;27.88;3.35;;;;;;;;;;4924613;29;20127;-91
2023/12/10 14:39:24;;;;;;;28.92;4.28;;;;;;;;;;4905003;29;20044;-92
2023/12/10 14:41:57;;;;;;;36.83;6.18;;;;;;;;;;4905201;29;20051;-94
2023/12/10 14:44:23;;;;;;;37.97;3.90;;;;;;;;;;4912732;29;20055;-92
2023/12/10 14:46:50;;;;;;;29.92;3.83;;;;;;;;;;4893800;29;20060;-95
2023/12/10 14:49:18;;;;;;;40.75;5.20;;;;;;;;;;4893585;29;20073;-94
2023/12/10 14:51:54;;;;;;;33.70;3.58;;;;;;;;;;4901607;29;20040;-94
2023/12/10 14:54:20;;;;;;;45.05;5.90;;;;;;;;;;4891040;29;20154;-93
2023/12/10 14:56:47;;;;;;;21.92;3.05;;;;;;;;;;4915784;29;20143;-93
2023/12/10 14:59:13;;;;;;;43.90;5.22;;;;;;;;;;4891394;29;20107;-95
2023/12/10 15:01:42;;;;;;;33.45;4.00;;;;;;;;;;4899183;29;20076;-95
2023/12/10 15:04:16;;;;;;;36.85;3.63;;;;;;;;;;4890004;29;20076;-93